createdAt,value
2019-02-28T00:00:44.498Z,3.36
2019-02-28T00:03:13.222Z,3.34
2019-02-28T00:05:41.943Z,3.30
2019-02-28T00:08:10.817Z,3.32
2019-02-28T00:10:39.538Z,3.21
2019-02-28T00:13:08.263Z,3.26
2019-02-28T00:15:37.044Z,3.29
2019-02-28T00:18:05.780Z,3.20
2019-02-28T00:20:36.537Z,3.06
2019-02-28T00:23:05.101Z,3.27
2019-02-28T00:25:37.790Z,3.15
2019-02-28T00:28:04.271Z,3.02
2019-02-28T00:30:33.029Z,2.90
2019-02-28T00:33:01.751Z,2.93
2019-02-28T00:35:30.463Z,2.81
2019-02-28T00:37:59.336Z,2.79
2019-02-28T00:40:28.063Z,2.64
2019-02-28T00:43:02.948Z,2.60
2019-02-28T00:45:36.303Z,2.40
2019-02-28T00:48:02.276Z,2.39
2019-02-28T00:50:30.995Z,2.53
2019-02-28T00:53:00.005Z,2.40
2019-02-28T00:55:28.726Z,2.46
2019-02-28T00:57:57.450Z,2.31
2019-02-28T01:00:26.333Z,2.36
2019-02-28T01:03:00.940Z,2.30
2019-02-28T01:05:29.670Z,2.30
2019-02-28T01:07:58.426Z,2.25
2019-02-28T01:10:27.142Z,2.42
2019-02-28T01:12:55.870Z,2.42
2019-02-28T01:15:24.668Z,2.39
2019-02-28T01:17:53.389Z,2.40
2019-02-28T01:20:22.113Z,2.40
2019-02-28T01:22:50.986Z,2.51
2019-02-28T01:25:19.714Z,2.56
2019-02-28T01:27:48.433Z,2.50
2019-02-28T01:30:17.517Z,2.44
2019-02-28T01:32:49.931Z,2.45
2019-02-28T01:35:16.890Z,2.32
2019-02-28T01:37:45.755Z,2.19
2019-02-28T01:40:15.840Z,2.20
2019-02-28T01:42:44.559Z,2.13
2019-02-28T01:45:14.174Z,2.08
2019-02-28T01:47:42.907Z,2.08
2019-02-28T01:50:12.732Z,2.08
2019-02-28T01:52:45.728Z,2.05
2019-02-28T01:55:12.366Z,2.14
2019-02-28T01:57:44.002Z,2.26
2019-02-28T02:00:14.547Z,2.34
2019-02-28T02:02:43.255Z,2.43
2019-02-28T02:05:12.371Z,2.25
2019-02-28T02:07:41.153Z,2.24
2019-02-28T02:10:23.135Z,2.18
2019-02-28T02:12:52.525Z,2.24
2019-02-28T02:15:21.545Z,2.28
2019-02-28T02:17:50.272Z,2.19
2019-02-28T02:20:19.165Z,2.38
2019-02-28T02:22:47.969Z,2.29
2019-02-28T02:25:16.689Z,2.49
2019-02-28T02:27:45.479Z,2.46
2019-02-28T02:30:23.059Z,2.55
2019-02-28T02:32:57.864Z,2.65
2019-02-28T02:35:26.550Z,2.63
2019-02-28T02:37:55.257Z,2.62
2019-02-28T02:40:24.329Z,2.70
2019-02-28T02:42:53.316Z,2.64
2019-02-28T02:45:22.036Z,2.66
2019-02-28T02:47:51.168Z,2.77
2019-02-28T02:50:19.888Z,2.50
2019-02-28T02:52:48.599Z,2.29
2019-02-28T02:55:17.370Z,2.12
2019-02-28T02:57:50.582Z,2.00
2019-02-28T03:00:18.651Z,1.85
2019-02-28T03:02:47.408Z,1.64
2019-02-28T03:05:16.235Z,1.52
2019-02-28T03:07:44.964Z,1.47
2019-02-28T03:10:19.702Z,1.45
2019-02-28T03:12:48.420Z,1.36
2019-02-28T03:15:24.786Z,1.40
2019-02-28T03:17:49.475Z,1.33
2019-02-28T03:20:18.193Z,1.42
2019-02-28T03:22:46.948Z,1.51
2019-02-28T03:25:18.990Z,1.53
2019-02-28T03:27:55.075Z,1.60
2019-02-28T03:30:29.469Z,1.61
2019-02-28T03:32:52.150Z,1.61
2019-02-28T03:35:20.977Z,1.54
2019-02-28T03:37:49.663Z,1.48
2019-02-28T03:40:18.468Z,1.54
2019-02-28T03:42:47.191Z,1.57
2019-02-28T03:45:16.402Z,1.63
2019-02-28T03:47:45.546Z,1.70
2019-02-28T03:50:14.457Z,1.69
2019-02-28T03:52:44.704Z,1.68
2019-02-28T03:55:14.806Z,1.78
2019-02-28T03:57:43.540Z,1.85
2019-02-28T04:00:23.513Z,1.88
2019-02-28T04:02:57.052Z,1.97
2019-02-28T04:05:28.118Z,1.84
2019-02-28T04:07:54.951Z,1.74
2019-02-28T04:10:23.867Z,1.64
2019-02-28T04:12:52.599Z,1.60
2019-02-28T04:15:21.668Z,1.69
2019-02-28T04:17:50.380Z,1.48
2019-02-28T04:20:19.211Z,1.43
2019-02-28T04:22:48.235Z,1.43
2019-02-28T04:25:22.430Z,1.43
2019-02-28T04:27:47.395Z,1.41
2019-02-28T04:30:16.893Z,1.48
2019-02-28T04:32:47.088Z,1.36
2019-02-28T04:35:15.814Z,1.08
2019-02-28T04:37:47.035Z,1.19
2019-02-28T04:40:15.145Z,1.24
2019-02-28T04:42:43.866Z,1.25
2019-02-28T04:45:13.934Z,1.25
2019-02-28T04:47:42.660Z,1.25
2019-02-28T04:50:12.397Z,1.29
2019-02-28T04:52:46.763Z,1.27
2019-02-28T04:55:12.393Z,1.42
2019-02-28T04:57:41.104Z,1.58
2019-02-28T05:00:18.076Z,1.67
2019-02-28T05:02:46.820Z,1.67
2019-02-28T05:05:15.547Z,1.64
2019-02-28T05:07:44.539Z,1.60
2019-02-28T05:10:13.360Z,1.54
2019-02-28T05:12:42.086Z,1.57
2019-02-28T05:15:13.166Z,1.75
2019-02-28T05:17:41.892Z,1.64
2019-02-28T05:20:12.193Z,1.60
2019-02-28T05:22:41.384Z,1.73
2019-02-28T05:25:11.214Z,1.79
2019-02-28T05:27:39.948Z,1.76
2019-02-28T05:30:17.879Z,1.99
2019-02-28T05:32:44.336Z,2.02
2019-02-28T05:35:13.427Z,2.08
2019-02-28T05:37:46.871Z,1.96
2019-02-28T05:40:14.441Z,1.99
2019-02-28T05:42:43.196Z,1.97
2019-02-28T05:45:14.922Z,1.99
2019-02-28T05:47:46.538Z,2.00
2019-02-28T05:50:16.577Z,2.17
2019-02-28T05:52:44.577Z,2.34
2019-02-28T05:55:13.519Z,2.52
2019-02-28T05:57:44.657Z,2.79
2019-02-28T06:00:18.548Z,2.89
2019-02-28T06:02:47.268Z,3.05
2019-02-28T06:05:16.831Z,3.15
2019-02-28T06:07:46.090Z,3.32
2019-02-28T06:10:15.571Z,3.45
2019-02-28T06:12:45.020Z,3.48
2019-02-28T06:15:17.007Z,3.50
2019-02-28T06:17:45.706Z,3.61
2019-02-28T06:20:17.934Z,3.82
2019-02-28T06:22:46.995Z,3.99
2019-02-28T06:25:24.013Z,4.16
2019-02-28T06:27:50.458Z,4.25
2019-02-28T06:30:17.661Z,4.59
2019-02-28T06:32:46.382Z,4.68
2019-02-28T06:35:17.659Z,4.80
2019-02-28T06:37:45.703Z,4.95
2019-02-28T06:40:15.432Z,5.10
2019-02-28T06:42:46.659Z,5.19
2019-02-28T06:45:18.647Z,5.54
2019-02-28T06:47:49.349Z,5.69
2019-02-28T06:50:19.056Z,5.89
2019-02-28T06:52:47.953Z,6.00
2019-02-28T06:55:26.966Z,6.12
2019-02-28T06:57:58.911Z,6.36
2019-02-28T07:00:26.198Z,6.48
2019-02-28T07:02:54.936Z,6.64
2019-02-28T07:05:25.813Z,6.84
2019-02-28T07:07:54.227Z,7.14
2019-02-28T07:10:22.987Z,7.19
2019-02-28T07:12:51.728Z,7.29
2019-02-28T07:15:24.012Z,7.47
2019-02-28T07:17:50.951Z,7.61
2019-02-28T07:20:20.213Z,7.71
2019-02-28T07:22:54.612Z,8.01
2019-02-28T07:25:19.389Z,7.99
2019-02-28T07:27:48.130Z,8.24
2019-02-28T07:30:20.905Z,8.25
2019-02-28T07:32:49.634Z,8.40
2019-02-28T07:35:18.484Z,8.24
2019-02-28T07:37:47.216Z,8.46
2019-02-28T07:40:18.111Z,8.55
2019-02-28T07:42:47.060Z,8.62
2019-02-28T07:45:16.565Z,8.72
2019-02-28T07:47:45.309Z,8.77
2019-02-28T07:50:17.190Z,8.87
2019-02-28T07:52:45.910Z,9.02
2019-02-28T07:55:16.231Z,9.18
2019-02-28T07:57:45.202Z,9.29
2019-02-28T08:00:19.903Z,9.34
2019-02-28T08:02:49.776Z,9.55
2019-02-28T08:05:18.845Z,9.93
2019-02-28T08:07:52.089Z,9.96
2019-02-28T08:10:30.631Z,9.99
2019-02-28T08:12:59.383Z,10.17
2019-02-28T08:15:30.000Z,10.30
2019-02-28T08:17:58.771Z,10.37
2019-02-28T08:20:30.711Z,10.46
2019-02-28T08:22:58.015Z,10.46
2019-02-28T08:25:26.964Z,10.52
2019-02-28T08:27:59.103Z,10.35
2019-02-28T08:30:28.668Z,10.56
2019-02-28T08:32:57.906Z,10.69
2019-02-28T08:35:26.651Z,10.63
2019-02-28T08:37:57.196Z,11.10
2019-02-28T08:40:27.301Z,11.17
2019-02-28T08:42:56.017Z,11.08
2019-02-28T08:45:25.870Z,11.02
2019-02-28T08:47:56.577Z,10.97
2019-02-28T08:50:26.241Z,11.11
2019-02-28T08:53:00.726Z,11.46
2019-02-28T08:55:29.548Z,11.49
2019-02-28T08:58:04.993Z,11.46
2019-02-28T09:00:32.583Z,11.63
2019-02-28T09:03:00.886Z,11.63
2019-02-28T09:05:30.620Z,11.76
2019-02-28T09:07:59.595Z,11.82
2019-02-28T09:10:28.454Z,11.93
2019-02-28T09:12:57.325Z,12.14
2019-02-28T09:15:30.074Z,12.38
2019-02-28T09:17:59.359Z,12.62
2019-02-28T09:20:26.987Z,12.81
2019-02-28T09:23:01.568Z,12.87
2019-02-28T09:25:27.018Z,12.93
2019-02-28T09:27:55.896Z,13.09
2019-02-28T09:30:57.445Z,13.01
2019-02-28T09:33:26.176Z,13.19
2019-02-28T09:35:54.897Z,13.36
2019-02-28T09:38:23.694Z,13.59
2019-02-28T09:40:52.421Z,13.68
2019-02-28T09:43:23.917Z,13.88
2019-02-28T09:45:51.647Z,13.87
2019-02-28T09:48:20.427Z,13.91
2019-02-28T09:50:49.138Z,13.87
2019-02-28T09:53:18.106Z,14.07
2019-02-28T09:55:46.835Z,13.84
2019-02-28T09:58:15.551Z,13.77
2019-02-28T10:00:46.510Z,14.13
2019-02-28T10:03:15.478Z,14.14
2019-02-28T10:05:45.589Z,14.30
2019-02-28T10:08:14.381Z,14.23
2019-02-28T10:10:43.105Z,14.41
2019-02-28T10:13:14.600Z,14.25
2019-02-28T10:15:42.477Z,14.38
2019-02-28T10:18:12.814Z,14.51
2019-02-28T10:20:42.132Z,14.49
2019-02-28T10:23:10.992Z,14.46
2019-02-28T10:25:43.310Z,14.56
2019-02-28T10:28:10.162Z,14.72
2019-02-28T10:30:40.351Z,14.89
2019-02-28T10:33:09.099Z,15.11
2019-02-28T10:35:37.810Z,15.04
2019-02-28T10:38:06.582Z,14.80
2019-02-28T10:40:35.304Z,14.88
2019-02-28T10:43:05.377Z,14.85
2019-02-28T10:45:34.366Z,14.90
2019-02-28T10:48:04.519Z,14.92
2019-02-28T10:50:34.840Z,15.17
2019-02-28T10:53:06.041Z,15.10
2019-02-28T10:55:35.126Z,15.18
2019-02-28T10:58:05.247Z,15.24
2019-02-28T11:00:36.834Z,15.44
2019-02-28T11:03:05.663Z,15.51
2019-02-28T11:05:37.395Z,15.56
2019-02-28T11:08:09.640Z,15.77
2019-02-28T11:10:40.032Z,15.79
2019-02-28T11:13:12.392Z,16.00
2019-02-28T11:15:41.606Z,15.95
2019-02-28T11:18:11.514Z,15.93
2019-02-28T11:20:41.048Z,15.91
2019-02-28T11:23:14.146Z,15.74
2019-02-28T11:25:41.242Z,15.78
2019-02-28T11:28:11.246Z,15.88
2019-02-28T11:30:44.038Z,16.00
2019-02-28T11:33:10.537Z,15.95
2019-02-28T11:35:39.314Z,16.02
2019-02-28T11:38:08.032Z,16.06
2019-02-28T11:40:36.866Z,15.85
2019-02-28T11:43:06.071Z,16.06
2019-02-28T11:45:37.065Z,16.23
2019-02-28T11:48:08.113Z,16.51
2019-02-28T11:50:40.950Z,16.68
2019-02-28T11:53:07.895Z,16.64
2019-02-28T11:55:36.629Z,16.57
2019-02-28T11:58:05.477Z,16.66
2019-02-28T12:00:39.238Z,16.63
2019-02-28T12:03:09.411Z,16.56
2019-02-28T12:05:38.556Z,16.57
2019-02-28T12:08:10.295Z,16.62
2019-02-28T12:10:37.840Z,16.79
2019-02-28T12:13:08.158Z,16.80
2019-02-28T12:15:41.785Z,16.60
2019-02-28T12:18:10.513Z,16.49
2019-02-28T12:20:39.431Z,16.77
2019-02-28T12:23:08.351Z,16.94
2019-02-28T12:25:39.607Z,16.87
2019-02-28T12:28:07.946Z,16.89
2019-02-28T12:30:37.077Z,16.77
2019-02-28T12:33:05.922Z,17.01
2019-02-28T12:35:40.281Z,16.90
2019-02-28T12:38:06.669Z,16.85
2019-02-28T12:40:37.300Z,16.89
2019-02-28T12:43:11.242Z,16.99
2019-02-28T12:45:41.777Z,16.96
2019-02-28T12:48:13.776Z,16.98
2019-02-28T12:50:42.905Z,17.03
2019-02-28T12:53:11.632Z,17.36
2019-02-28T12:55:40.375Z,17.31
2019-02-28T12:58:09.356Z,17.20
2019-02-28T13:00:43.942Z,17.30
2019-02-28T13:03:12.779Z,17.33
2019-02-28T13:05:43.365Z,17.39
2019-02-28T13:08:12.200Z,17.21
2019-02-28T13:10:42.207Z,17.23
2019-02-28T13:13:11.582Z,17.42
2019-02-28T13:15:45.565Z,17.39
2019-02-28T13:18:13.726Z,17.22
2019-02-28T13:20:42.892Z,17.40
2019-02-28T13:23:11.671Z,17.59
2019-02-28T13:25:40.442Z,17.59
2019-02-28T13:28:09.421Z,17.60
2019-02-28T13:30:39.999Z,17.49
2019-02-28T13:33:11.100Z,17.44
2019-02-28T13:35:45.747Z,17.59
2019-02-28T13:38:17.385Z,17.56
2019-02-28T13:40:44.790Z,17.71
2019-02-28T13:43:20.893Z,17.67
2019-02-28T13:45:45.992Z,17.69
2019-02-28T13:48:25.427Z,17.48
2019-02-28T13:50:46.182Z,17.38
2019-02-28T13:53:17.840Z,17.31
2019-02-28T13:55:45.470Z,17.38
2019-02-28T13:58:17.641Z,17.34
2019-02-28T14:00:48.292Z,17.38
2019-02-28T14:03:17.262Z,17.42
2019-02-28T14:05:46.179Z,17.56
2019-02-28T14:08:22.424Z,17.56
2019-02-28T14:10:51.851Z,17.70
2019-02-28T14:13:22.523Z,17.51
2019-02-28T14:15:53.249Z,17.55
2019-02-28T14:18:22.201Z,17.52
2019-02-28T14:20:52.257Z,17.51
2019-02-28T14:23:21.655Z,17.25
2019-02-28T14:25:51.912Z,17.20
2019-02-28T14:28:20.742Z,17.22
2019-02-28T14:30:49.455Z,17.30
2019-02-28T14:33:20.778Z,17.25
2019-02-28T14:35:49.625Z,16.94
2019-02-28T14:38:18.348Z,16.83
2019-02-28T14:40:49.635Z,16.60
2019-02-28T14:43:19.662Z,16.47
2019-02-28T14:45:48.150Z,16.63
2019-02-28T14:48:18.123Z,16.75
2019-02-28T14:50:46.945Z,16.74
2019-02-28T14:53:15.676Z,16.67
2019-02-28T14:55:44.609Z,16.63
2019-02-28T14:58:13.334Z,16.57
2019-02-28T15:00:43.336Z,16.52
2019-02-28T15:03:12.411Z,16.53
2019-02-28T15:05:42.643Z,16.50
2019-02-28T15:08:11.972Z,16.46
2019-02-28T15:10:42.384Z,16.49
2019-02-28T15:13:11.185Z,16.35
2019-02-28T15:15:40.016Z,16.24
2019-02-28T15:18:11.112Z,16.23
2019-02-28T15:20:39.500Z,16.10
2019-02-28T15:23:08.297Z,16.04
2019-02-28T15:25:37.372Z,15.93
2019-02-28T15:28:06.265Z,15.83
2019-02-28T15:30:42.136Z,15.64
2019-02-28T15:33:10.950Z,15.46
2019-02-28T15:35:39.763Z,15.30
2019-02-28T15:38:09.995Z,15.04
2019-02-28T15:40:46.562Z,14.82
2019-02-28T15:43:18.259Z,14.78
2019-02-28T15:45:46.079Z,14.65
2019-02-28T15:48:14.881Z,14.50
2019-02-28T15:50:44.125Z,14.42
2019-02-28T15:53:15.093Z,14.32
2019-02-28T15:55:43.460Z,14.23
2019-02-28T15:58:12.834Z,14.07
2019-02-28T16:00:41.635Z,13.94
2019-02-28T16:03:13.498Z,13.78
2019-02-28T16:05:44.064Z,13.64
2019-02-28T16:08:11.798Z,13.60
2019-02-28T16:10:52.592Z,13.53
2019-02-28T16:13:12.451Z,13.58
2019-02-28T16:15:43.241Z,13.44
2019-02-28T16:18:12.773Z,13.41
2019-02-28T16:20:41.748Z,13.30
2019-02-28T16:23:10.558Z,13.31
2019-02-28T16:25:40.170Z,13.22
2019-02-28T16:28:10.569Z,13.31
2019-02-28T16:30:40.326Z,13.41
2019-02-28T16:33:09.132Z,13.30
2019-02-28T16:35:38.185Z,13.25
2019-02-28T16:38:09.860Z,13.16
2019-02-28T16:40:39.449Z,13.07
2019-02-28T16:43:08.409Z,13.12
2019-02-28T16:45:41.062Z,13.22
2019-02-28T16:48:09.405Z,13.09
2019-02-28T16:50:38.398Z,12.97
2019-02-28T16:53:07.232Z,12.92
2019-02-28T16:55:38.862Z,13.02
2019-02-28T16:58:07.756Z,13.03
2019-02-28T17:00:39.518Z,12.97
2019-02-28T17:03:08.690Z,12.96
2019-02-28T17:05:37.551Z,12.88
2019-02-28T17:08:06.916Z,12.73
2019-02-28T17:10:40.089Z,12.72
2019-02-28T17:13:15.232Z,12.63
2019-02-28T17:16:01.376Z,12.49
2019-02-28T17:18:29.825Z,12.38
2019-02-28T17:21:00.161Z,12.28
2019-02-28T17:23:29.024Z,12.27
2019-02-28T17:26:00.335Z,12.34
2019-02-28T17:28:36.411Z,12.52
2019-02-28T17:31:15.731Z,12.54
2019-02-28T17:33:47.886Z,12.51
2019-02-28T17:36:16.908Z,12.47
2019-02-28T17:38:45.858Z,12.44
2019-02-28T17:41:14.671Z,12.38
2019-02-28T17:43:46.136Z,12.36
2019-02-28T17:46:16.689Z,12.24
2019-02-28T17:48:52.623Z,12.20
2019-02-28T17:51:31.115Z,12.11
2019-02-28T17:54:17.248Z,12.09
2019-02-28T17:56:56.389Z,11.99
2019-02-28T17:59:36.048Z,11.95
2019-02-28T18:02:24.101Z,12.00
2019-02-28T18:05:30.343Z,12.22
2019-02-28T18:08:16.150Z,12.34
2019-02-28T18:11:21.245Z,12.45
2019-02-28T18:13:55.259Z,12.47
2019-02-28T18:16:43.366Z,12.47
2019-02-28T18:19:18.981Z,12.46
2019-02-28T18:22:24.588Z,12.39
2019-02-28T18:25:14.001Z,12.39
2019-02-28T18:27:59.788Z,12.34
2019-02-28T18:31:06.626Z,12.37
2019-02-28T18:33:35.423Z,12.34
2019-02-28T18:36:08.268Z,12.50
2019-02-28T18:38:37.145Z,12.59
2019-02-28T18:41:06.574Z,12.70
2019-02-28T18:43:36.525Z,12.74
2019-02-28T18:46:06.383Z,12.67
2019-02-28T18:48:35.195Z,12.68
2019-02-28T18:51:04.009Z,12.62
2019-02-28T18:53:33.056Z,12.59
2019-02-28T18:56:01.877Z,12.35
2019-02-28T18:58:30.678Z,12.31
2019-02-28T19:00:59.675Z,11.97
2019-02-28T19:03:28.477Z,11.27
2019-02-28T19:05:58.003Z,10.64
2019-02-28T19:08:27.370Z,10.30
2019-02-28T19:10:56.177Z,10.25
2019-02-28T19:13:25.001Z,10.44
2019-02-28T19:15:54.109Z,10.48
2019-02-28T19:18:22.913Z,10.52
2019-02-28T19:20:51.730Z,10.60
2019-02-28T19:23:20.694Z,10.61
2019-02-28T19:25:49.505Z,10.59
2019-02-28T19:28:18.322Z,10.63
2019-02-28T19:30:48.666Z,10.92
2019-02-28T19:33:17.483Z,11.04
2019-02-28T19:35:46.304Z,10.99
2019-02-28T19:38:15.205Z,10.94
2019-02-28T19:40:44.007Z,11.06
2019-02-28T19:43:12.820Z,10.99
2019-02-28T19:45:44.718Z,10.79
2019-02-28T19:48:13.544Z,10.68
2019-02-28T19:50:42.376Z,10.61
2019-02-28T19:53:11.360Z,10.52
2019-02-28T19:55:40.175Z,10.47
2019-02-28T19:58:10.440Z,10.62
2019-02-28T20:00:40.229Z,10.86
2019-02-28T20:03:09.044Z,10.90
2019-02-28T20:05:37.863Z,11.04
2019-02-28T20:08:08.259Z,11.17
2019-02-28T20:10:37.066Z,11.26
2019-02-28T20:13:06.369Z,11.45
2019-02-28T20:15:39.838Z,11.65
2019-02-28T20:18:08.654Z,11.51
2019-02-28T20:20:37.495Z,11.35
2019-02-28T20:23:06.603Z,11.07
2019-02-28T20:25:35.405Z,10.64
2019-02-28T20:28:05.689Z,10.44
2019-02-28T20:30:34.885Z,10.20
2019-02-28T20:33:03.762Z,9.92
2019-02-28T20:35:32.575Z,9.69
2019-02-28T20:38:04.549Z,9.40
2019-02-28T20:40:35.774Z,9.21
2019-02-28T20:43:05.006Z,8.96
2019-02-28T20:45:36.961Z,8.87
2019-02-28T20:48:05.769Z,8.80
2019-02-28T20:50:40.693Z,8.75
2019-02-28T20:53:09.503Z,8.98
2019-02-28T20:55:38.305Z,9.16
2019-02-28T20:58:07.173Z,9.46
2019-02-28T21:00:35.981Z,9.95
2019-02-28T21:03:04.893Z,10.05
2019-02-28T21:05:33.748Z,10.16
2019-02-28T21:08:02.650Z,10.22
2019-02-28T21:10:31.455Z,10.05
2019-02-28T21:13:00.521Z,10.00
2019-02-28T21:15:29.330Z,10.00
2019-02-28T21:17:58.153Z,9.91
2019-02-28T21:20:26.975Z,10.01
2019-02-28T21:22:57.353Z,10.38
2019-02-28T21:25:27.551Z,10.65
2019-02-28T21:27:56.438Z,10.93
2019-02-28T21:30:27.306Z,11.07
2019-02-28T21:33:02.729Z,11.20
2019-02-28T21:35:31.538Z,11.18
2019-02-28T21:38:00.334Z,11.26
2019-02-28T21:40:29.222Z,11.21
2019-02-28T21:42:58.038Z,11.02
2019-02-28T21:45:28.361Z,10.85
2019-02-28T21:47:57.245Z,10.87
2019-02-28T21:50:26.067Z,10.70
2019-02-28T21:52:54.892Z,10.73
2019-02-28T21:55:23.792Z,10.70
2019-02-28T21:57:52.580Z,10.73
2019-02-28T22:00:32.056Z,10.62
2019-02-28T22:03:00.854Z,10.62
2019-02-28T22:05:29.677Z,10.50
2019-02-28T22:07:58.744Z,10.45
2019-02-28T22:10:27.547Z,10.39
2019-02-28T22:12:56.355Z,10.41
2019-02-28T22:15:26.239Z,10.46
2019-02-28T22:17:55.052Z,10.66
2019-02-28T22:20:23.861Z,10.71
2019-02-28T22:22:52.765Z,10.80
2019-02-28T22:25:21.577Z,10.87
2019-02-28T22:27:51.282Z,10.95
2019-02-28T22:30:35.174Z,11.00
2019-02-28T22:33:05.535Z,11.12
2019-02-28T22:35:42.195Z,11.13
2019-02-28T22:38:11.000Z,11.16
2019-02-28T22:40:39.814Z,11.22
2019-02-28T22:43:09.041Z,11.15
2019-02-28T22:45:37.852Z,11.01
2019-02-28T22:48:06.655Z,10.98
2019-02-28T22:50:35.522Z,10.89
2019-02-28T22:53:04.332Z,10.87
2019-02-28T22:55:33.158Z,10.66
2019-02-28T22:58:10.385Z,10.56
2019-02-28T23:00:43.668Z,10.51
2019-02-28T23:03:12.481Z,10.47
2019-02-28T23:05:41.349Z,10.33
2019-02-28T23:08:10.173Z,10.26
2019-02-28T23:10:38.975Z,10.32
2019-02-28T23:13:08.306Z,10.34
2019-02-28T23:15:37.100Z,10.36
2019-02-28T23:18:05.909Z,10.27
2019-02-28T23:20:34.887Z,10.44
2019-02-28T23:23:03.668Z,10.42
2019-02-28T23:25:32.698Z,10.44
2019-02-28T23:28:15.477Z,10.36
2019-02-28T23:30:55.866Z,10.39
2019-02-28T23:33:24.826Z,10.22
2019-02-28T23:35:54.125Z,10.01
2019-02-28T23:38:22.921Z,9.97
2019-02-28T23:40:51.863Z,9.90
2019-02-28T23:43:20.676Z,9.72
2019-02-28T23:45:49.495Z,9.61
2019-02-28T23:48:18.523Z,9.50
2019-02-28T23:50:47.312Z,9.54
2019-02-28T23:53:16.107Z,9.53
2019-02-28T23:55:44.942Z,9.68
2019-02-28T23:58:13.735Z,9.86
